Time;durP1;ratioP1;P1;durP2;ratioP2;P2;SDS_P1;SDS_P2;PMS_P1;PMS_P2;Temp;Humidity;BMP_temperature;BMP_pressure;BME280_temperature;BME280_humidity;BME280_pressure;Samples;Min_cycle;Max_cycle;Signal;HPM_P1;HPM_P2
2022/01/27 00:02:33;;;;;;;70.25;27.88;;;;;;;0.09;100.00;102372.28;5112204;27;20356;-53
2022/01/27 00:05:14;;;;;;;61.55;26.20;;;;;;;0.05;100.00;102370.50;5111944;28;20052;-53
2022/01/27 00:07:43;;;;;;;60.83;26.13;;;;;;;0.03;100.00;102365.25;5112629;28;20070;-53
2022/01/27 00:10:21;;;;;;;69.90;27.73;;;;;;;0.01;100.00;102366.09;5112220;28;20062;-53
2022/01/27 00:12:49;;;;;;;74.50;27.75;;;;;;;-0.03;100.00;102373.91;5112428;28;20051;-53
2022/01/27 00:15:22;;;;;;;65.55;27.05;;;;;;;-0.02;100.00;102367.84;5112281;28;20109;-53
2022/01/27 00:17:58;;;;;;;59.42;26.48;;;;;;;-0.03;100.00;102376.50;5112957;28;20056;-53
2022/01/27 00:20:26;;;;;;;64.10;25.40;;;;;;;-0.05;100.00;102373.00;5111410;28;20056;-53
2022/01/27 00:22:55;;;;;;;62.60;25.83;;;;;;;-0.07;100.00;102374.72;5111640;28;20056;-53
2022/01/27 00:25:23;;;;;;;62.35;25.33;;;;;;;-0.03;100.00;102368.69;5111391;28;20055;-53
2022/01/27 00:27:52;;;;;;;64.18;25.23;;;;;;;-0.08;100.00;102372.97;5111582;28;20055;-53
2022/01/27 00:30:20;;;;;;;64.93;26.20;;;;;;;-0.16;100.00;102363.31;5111517;28;20068;-53
2022/01/27 00:32:48;;;;;;;66.70;25.75;;;;;;;-0.26;100.00;102367.53;5111775;28;20056;-53
2022/01/27 00:35:18;;;;;;;61.97;25.33;;;;;;;-0.22;100.00;102369.31;5112080;28;20082;-53
2022/01/27 00:37:46;;;;;;;63.97;24.42;;;;;;;-0.19;100.00;102365.00;5111396;28;20098;-53
2022/01/27 00:40:15;;;;;;;70.88;28.42;;;;;;;-0.22;100.00;102361.47;5112264;28;20067;-53
2022/01/27 00:42:45;;;;;;;74.10;27.35;;;;;;;-0.22;100.00;102353.66;5111303;28;20527;-53
2022/01/27 00:45:13;;;;;;;63.78;26.25;;;;;;;-0.31;100.00;102356.16;5111891;28;20078;-53
2022/01/27 00:47:41;;;;;;;64.63;25.42;;;;;;;-0.32;100.00;102346.56;5111204;28;20052;-53
2022/01/27 00:50:10;;;;;;;69.97;27.70;;;;;;;-0.31;100.00;102349.19;5111122;28;20105;-53
2022/01/27 00:52:43;;;;;;;68.10;25.95;;;;;;;-0.37;100.00;102354.34;5111078;28;20055;-53
2022/01/27 00:55:14;;;;;;;61.35;24.85;;;;;;;-0.43;100.00;102349.94;5111114;28;20392;-53
2022/01/27 00:57:59;;;;;;;62.50;24.27;;;;;;;-0.47;100.00;102362.91;5110779;28;20129;-53
2022/01/27 01:00:32;;;;;;;69.95;26.70;;;;;;;-0.52;100.00;102364.56;5110781;28;20052;-53
2022/01/27 01:03:05;;;;;;;78.18;27.95;;;;;;;-0.53;100.00;102366.31;5112124;28;20051;-53
2022/01/27 01:05:53;;;;;;;76.40;28.92;;;;;;;-0.55;100.00;102362.81;5110617;28;20056;-53
2022/01/27 01:16:57;;;;;;;69.22;25.55;;;;;;;-0.15;100.00;102363.31;5071260;28;20066;-53
2022/01/27 01:19:36;;;;;;;70.47;26.80;;;;;;;-0.03;100.00;102366.06;5098183;28;20063;-53
2022/01/27 01:29:24;;;;;;;72.55;29.08;;;;;;;0.14;100.00;102368.00;5096942;28;20060;-53
2022/01/27 01:30:49;;;;;;;64.70;26.75;;;;;;;0.51;100.00;102368.38;5096818;28;20064;-53
2022/01/27 01:33:23;;;;;;;64.35;25.63;;;;;;;0.62;100.00;102361.47;5097975;28;20391;-53
2022/01/27 01:36:01;;;;;;;71.63;26.40;;;;;;;0.75;100.00;102365.09;5097880;28;20075;-53
2022/01/27 01:38:30;;;;;;;60.60;25.38;;;;;;;0.82;100.00;102366.00;5096396;28;20052;-53
2022/01/27 01:41:00;;;;;;;64.00;26.75;;;;;;;0.92;100.00;102355.66;5096809;28;20063;-53
2022/01/27 01:43:28;;;;;;;63.05;26.67;;;;;;;0.96;100.00;102367.00;5096549;28;20512;-53
2022/01/27 01:45:57;;;;;;;58.55;25.58;;;;;;;1.01;100.00;102353.94;5097086;28;20052;-53
2022/01/27 01:48:25;;;;;;;62.50;25.42;;;;;;;1.05;100.00;102364.44;5096748;28;20062;-53
2022/01/27 01:50:55;;;;;;;58.42;25.67;;;;;;;1.17;100.00;102354.94;5096735;28;20462;-53
2022/01/27 01:53:23;;;;;;;64.07;24.95;;;;;;;1.27;100.00;102361.97;5096362;28;20062;-53
2022/01/27 01:55:51;;;;;;;56.38;23.58;;;;;;;1.27;100.00;102356.75;5096777;28;20500;-53
2022/01/27 01:58:21;;;;;;;63.25;25.95;;;;;;;1.30;100.00;102351.53;5096250;28;20059;-53
2022/01/27 02:00:50;;;;;;;55.53;23.38;;;;;;;1.44;100.00;102355.09;5097332;28;20052;-53
2022/01/27 02:03:18;;;;;;;56.67;23.30;;;;;;;1.48;100.00;102341.19;5096504;28;20062;-53
2022/01/27 02:05:52;;;;;;;52.67;24.42;;;;;;;1.47;100.00;102349.88;5097079;28;20126;-53
2022/01/27 02:08:39;;;;;;;51.60;23.13;;;;;;;1.49;100.00;102342.91;5096156;28;20063;-53
2022/01/27 02:19:30;;;;;;;55.03;24.52;;;;;;;1.64;100.00;102346.47;5095645;28;20056;-53
2022/01/27 02:22:01;;;;;;;60.95;24.00;;;;;;;1.66;100.00;102340.41;5096022;28;20134;-53
2022/01/27 02:24:30;;;;;;;59.30;24.35;;;;;;;1.65;100.00;102343.00;5095513;28;20430;-53
2022/01/27 02:27:00;;;;;;;54.42;22.42;;;;;;;1.67;100.00;102336.88;5096022;28;20052;-53
2022/01/27 02:29:29;;;;;;;51.38;22.45;;;;;;;1.69;100.00;102344.75;5095956;28;20059;-53
2022/01/27 02:31:58;;;;;;;53.30;23.05;;;;;;;1.72;100.00;102342.16;5095897;28;20066;-53
2022/01/27 02:34:27;;;;;;;49.17;22.50;;;;;;;1.72;100.00;102339.53;5095302;28;20052;-53
2022/01/27 02:36:55;;;;;;;52.38;23.83;;;;;;;1.74;100.00;102342.16;5095507;28;20067;-53
2022/01/27 02:39:25;;;;;;;55.25;23.08;;;;;;;1.81;100.00;102344.78;5095733;28;20079;-53
2022/01/27 02:41:58;;;;;;;51.63;22.33;;;;;;;1.81;100.00;102343.91;5096186;28;20066;-53
2022/01/27 02:44:31;;;;;;;57.45;23.23;;;;;;;1.80;100.00;102332.59;5096000;28;20060;-53
2022/01/27 02:46:59;;;;;;;51.22;22.63;;;;;;;1.80;100.00;102329.97;5095779;28;20051;-53
2022/01/27 02:49:27;;;;;;;53.67;23.90;;;;;;;1.78;100.00;102336.06;5095583;28;20143;-53
2022/01/27 02:51:55;;;;;;;55.63;23.63;;;;;;;1.79;100.00;102320.38;5095552;28;20064;-53
2022/01/27 02:54:25;;;;;;;55.95;24.48;;;;;;;1.72;100.00;102322.97;5095271;28;20067;-53
2022/01/27 02:57:13;;;;;;;52.22;22.33;;;;;;;1.76;100.00;102330.81;5095175;28;20059;-53
2022/01/27 02:59:41;;;;;;;51.08;22.38;;;;;;;1.70;100.00;102325.56;5095090;28;20495;-53
2022/01/27 03:02:09;;;;;;;56.17;23.60;;;;;;;1.64;100.00;102320.31;5096215;28;20060;-53
2022/01/27 03:04:37;;;;;;;52.08;23.98;;;;;;;1.61;100.00;102309.84;5094855;28;20499;-53
2022/01/27 03:07:08;;;;;;;54.78;23.00;;;;;;;1.45;100.00;102304.53;5094958;28;20511;-53
2022/01/27 03:09:37;;;;;;;53.90;22.50;;;;;;;1.36;100.00;102309.75;5095808;28;20422;-53
2022/01/27 03:12:08;;;;;;;57.35;24.92;;;;;;;1.21;100.00;102293.94;5095179;28;20060;-53
2022/01/27 03:14:36;;;;;;;59.58;24.58;;;;;;;1.05;100.00;102290.41;5094580;28;20056;-53
2022/01/27 03:17:06;;;;;;;55.38;23.55;;;;;;;1.05;100.00;102306.94;5094790;28;20102;-53
2022/01/27 03:19:34;;;;;;;49.55;21.83;;;;;;;1.03;100.00;102300.84;5095038;28;20055;-53
2022/01/27 03:22:04;;;;;;;63.20;23.50;;;;;;;1.04;100.00;102307.81;5095190;28;20056;-53
2022/01/27 03:24:32;;;;;;;62.30;23.88;;;;;;;1.05;100.00;102301.72;5094774;28;20055;-53
2022/01/27 03:27:02;;;;;;;58.08;24.85;;;;;;;0.92;100.00;102271.13;5095484;28;20070;-53
2022/01/27 03:29:30;;;;;;;62.40;25.75;;;;;;;1.25;100.00;102314.03;5094385;28;20063;-53
2022/01/27 03:31:59;;;;;;;60.20;26.02;;;;;;;1.21;100.00;102305.31;5095011;28;20055;-53
2022/01/27 03:34:27;;;;;;;56.50;24.70;;;;;;;1.19;100.00;102301.78;5094962;28;20060;-53
2022/01/27 03:36:55;;;;;;;57.78;24.67;;;;;;;1.23;100.00;102298.34;5094305;28;20056;-53
2022/01/27 03:39:25;;;;;;;58.25;25.25;;;;;;;1.17;100.00;102302.66;5095042;28;20062;-53
2022/01/27 03:41:55;;;;;;;60.63;23.48;;;;;;;1.11;100.00;102299.16;5094639;28;20056;-53
2022/01/27 03:44:26;;;;;;;51.92;22.50;;;;;;;1.06;100.00;102299.97;5094379;28;20059;-53
2022/01/27 03:46:55;;;;;;;54.80;23.58;;;;;;;1.11;100.00;102298.28;5094272;28;20062;-53
2022/01/27 03:49:23;;;;;;;61.88;24.80;;;;;;;1.22;100.00;102290.47;5095145;28;20056;-53
2022/01/27 03:51:52;;;;;;;57.70;24.23;;;;;;;1.29;100.00;102293.16;5094276;28;20052;-53
2022/01/27 03:54:20;;;;;;;53.63;24.42;;;;;;;1.32;100.00;102296.63;5094286;28;20510;-53
2022/01/27 03:56:48;;;;;;;58.58;23.58;;;;;;;1.39;100.00;102296.66;5094201;28;20507;-53
2022/01/27 03:59:17;;;;;;;55.03;22.77;;;;;;;1.44;100.00;102292.31;5094225;28;20074;-53
2022/01/27 04:01:46;;;;;;;55.28;24.33;;;;;;;1.53;100.00;102296.75;5094470;28;20064;-53
2022/01/27 04:04:15;;;;;;;59.78;23.38;;;;;;;1.57;100.00;102289.78;5094471;28;20056;-53
2022/01/27 04:06:43;;;;;;;59.30;23.38;;;;;;;1.60;100.00;102293.28;5094175;28;20056;-53
2022/01/27 04:09:12;;;;;;;53.22;22.13;;;;;;;1.65;100.00;102291.53;5094413;28;20081;-53
2022/01/27 04:11:42;;;;;;;53.85;23.27;;;;;;;1.67;100.00;102283.69;5095190;28;20063;-53
2022/01/27 04:14:11;;;;;;;57.72;23.55;;;;;;;1.74;100.00;102285.47;5094437;28;20063;-53
2022/01/27 04:16:39;;;;;;;55.33;22.45;;;;;;;1.80;100.00;102277.63;5094286;28;20071;-53
2022/01/27 04:19:09;;;;;;;52.42;22.88;;;;;;;1.86;100.00;102285.47;5094418;28;20058;-53
2022/01/27 04:21:38;;;;;;;51.10;23.08;;;;;;;1.90;100.00;102281.16;5094019;28;20094;-53
2022/01/27 04:24:06;;;;;;;59.45;20.83;;;;;;;1.95;100.00;102291.59;5093888;28;20056;-53
2022/01/27 04:26:41;;;;;;;54.20;22.98;;;;;;;1.96;100.00;102285.53;5095158;28;20058;-53
2022/01/27 04:29:09;;;;;;;47.75;21.67;;;;;;;1.97;100.00;102287.28;5093675;28;20064;-53
2022/01/27 04:31:40;;;;;;;54.15;22.08;;;;;;;2.02;100.00;102280.31;5094493;28;20052;-53
2022/01/27 04:34:11;;;;;;;53.42;22.95;;;;;;;2.00;100.00;102287.25;5093717;28;20059;-53
2022/01/27 04:36:41;;;;;;;58.00;24.02;;;;;;;1.97;100.00;102288.13;5094736;28;20052;-53
2022/01/27 04:39:15;;;;;;;50.17;20.35;;;;;;;2.05;100.00;102288.13;5094724;28;20052;-53
2022/01/27 04:41:49;;;;;;;52.20;22.42;;;;;;;2.03;100.00;102282.03;5095129;28;20056;-53
2022/01/27 04:44:25;;;;;;;50.80;22.02;;;;;;;2.03;100.00;102277.69;5095022;28;20074;-53
2022/01/27 04:46:59;;;;;;;46.58;20.90;;;;;;;2.06;100.00;102279.41;5094052;28;20066;-53
2022/01/27 04:49:28;;;;;;;50.22;22.15;;;;;;;2.04;100.00;102281.16;5098291;28;20457;-53
2022/01/27 04:51:57;;;;;;;53.72;22.27;;;;;;;2.08;100.00;102275.06;5097954;28;20067;-53
2022/01/27 04:54:30;;;;;;;55.65;21.48;;;;;;;2.01;100.00;102271.56;5097611;28;20419;-53
2022/01/27 04:57:01;;;;;;;50.97;21.83;;;;;;;2.01;100.00;102279.41;5097463;28;20055;-53
2022/01/27 04:59:35;;;;;;;54.88;23.35;;;;;;;1.88;100.00;102276.78;5098588;28;20052;-53
2022/01/27 05:02:07;;;;;;;56.28;23.98;;;;;;;1.76;100.00;102277.63;5098982;28;20052;-53
2022/01/27 05:04:42;;;;;;;60.72;23.40;;;;;;;1.58;100.00;102278.41;5096977;28;20097;-53
2022/01/27 05:07:10;;;;;;;54.53;22.23;;;;;;;1.47;100.00;102278.41;5098705;28;20052;-54
2022/01/27 05:09:48;;;;;;;50.50;22.42;;;;;;;1.34;100.00;102269.63;5097490;28;20462;-53
2022/01/27 05:12:26;;;;;;;53.67;23.88;;;;;;;1.19;100.00;102273.03;5098386;28;20419;-53
2022/01/27 05:14:58;;;;;;;56.75;22.52;;;;;;;1.14;100.00;102266.03;5097152;28;20064;-53
2022/01/27 05:17:26;;;;;;;53.17;22.05;;;;;;;1.07;100.00;102267.75;5096870;28;20063;-53
2022/01/27 05:19:56;;;;;;;56.60;23.13;;;;;;;1.06;100.00;102266.88;5097363;28;20128;-53
2022/01/27 05:22:24;;;;;;;51.15;22.73;;;;;;;1.03;100.00;102268.59;5096949;28;20538;-53
2022/01/27 05:24:53;;;;;;;58.25;24.35;;;;;;;0.97;100.00;102276.41;5096919;28;20062;-53
2022/01/27 05:27:21;;;;;;;66.30;24.60;;;;;;;0.88;100.00;102274.63;5097770;28;20060;-53
2022/01/27 05:29:51;;;;;;;58.85;22.70;;;;;;;0.82;100.00;102274.56;5097140;28;20056;-53
2022/01/27 05:32:20;;;;;;;58.65;21.90;;;;;;;0.89;100.00;102278.97;5097669;28;20068;-53
2022/01/27 05:34:48;;;;;;;57.05;22.75;;;;;;;1.01;100.00;102284.28;5096520;28;20060;-53
2022/01/27 05:37:18;;;;;;;56.47;22.52;;;;;;;1.13;100.00;102279.97;5097008;28;20496;-53
2022/01/27 05:39:46;;;;;;;56.22;24.10;;;;;;;1.30;100.00;102273.09;5096968;28;20056;-53
2022/01/27 05:42:14;;;;;;;57.10;25.25;;;;;;;1.37;100.00;102277.47;5096936;28;20057;-53
2022/01/27 05:44:42;;;;;;;51.80;21.88;;;;;;;1.44;100.00;102275.75;5096180;28;20074;-53
2022/01/27 05:47:11;;;;;;;62.40;25.60;;;;;;;1.58;100.00;102275.81;5096824;28;20071;-53
2022/01/27 05:49:39;;;;;;;57.15;24.30;;;;;;;1.63;100.00;102288.06;5097557;28;20411;-53
2022/01/27 05:52:07;;;;;;;51.28;21.77;;;;;;;1.72;100.00;102288.97;5096428;28;20082;-53
2022/01/27 05:54:37;;;;;;;60.83;23.45;;;;;;;1.73;100.00;102283.72;5097144;28;20380;-53
2022/01/27 05:57:06;;;;;;;57.17;24.33;;;;;;;1.79;100.00;102282.88;5096241;28;20527;-53
2022/01/27 05:59:34;;;;;;;51.22;22.23;;;;;;;1.85;100.00;102283.75;5096466;28;20060;-53
2022/01/27 06:02:02;;;;;;;52.10;23.05;;;;;;;1.93;100.00;102277.66;5096942;28;20542;-53
2022/01/27 06:04:31;;;;;;;51.97;21.55;;;;;;;1.97;100.00;102282.03;5095795;28;20060;-53
2022/01/27 06:06:59;;;;;;;49.33;22.13;;;;;;;2.00;100.00;102287.25;5096088;28;20081;-53
2022/01/27 06:09:27;;;;;;;54.67;22.77;;;;;;;2.04;100.00;102286.41;5096018;28;20546;-53
2022/01/27 06:11:57;;;;;;;57.25;23.58;;;;;;;2.12;100.00;102289.03;5096644;28;20056;-53
2022/01/27 06:14:25;;;;;;;52.92;22.02;;;;;;;2.18;100.00;102296.91;5095997;28;20063;-53
2022/01/27 06:16:53;;;;;;;49.78;20.98;;;;;;;2.19;100.00;102296.03;5095836;28;20462;-53
2022/01/27 06:19:27;;;;;;;54.92;21.00;;;;;;;2.18;100.00;102292.53;5097155;28;20135;-53
2022/01/27 06:21:55;;;;;;;48.08;22.10;;;;;;;2.20;100.00;102284.66;5096070;28;20056;-53
2022/01/27 06:24:23;;;;;;;49.03;21.65;;;;;;;2.21;100.00;102282.06;5095431;28;20117;-54
2022/01/27 06:26:52;;;;;;;48.40;21.52;;;;;;;2.27;100.00;102285.56;5096302;28;20109;-54
2022/01/27 06:29:21;;;;;;;48.38;21.70;;;;;;;2.35;100.00;102289.91;5096778;28;20059;-53
2022/01/27 06:31:50;;;;;;;48.65;21.33;;;;;;;2.31;100.00;102277.72;5096189;28;20059;-53
2022/01/27 06:34:18;;;;;;;51.50;22.50;;;;;;;2.36;100.00;102285.56;5095759;28;20084;-53
2022/01/27 06:36:46;;;;;;;51.88;23.08;;;;;;;2.29;100.00;102289.94;5095858;28;20134;-53
2022/01/27 06:39:14;;;;;;;47.10;22.10;;;;;;;2.33;100.00;102291.66;5095686;28;20113;-53
2022/01/27 06:41:44;;;;;;;48.28;20.60;;;;;;;2.36;100.00;102290.81;5095573;28;20064;-54
2022/01/27 06:44:13;;;;;;;41.60;19.45;;;;;;;2.45;100.00;102290.78;5095844;28;20060;-53
2022/01/27 06:46:43;;;;;;;46.17;21.10;;;;;;;2.39;100.00;102283.81;5095250;28;20091;-54
2022/01/27 06:49:16;;;;;;;48.58;20.40;;;;;;;2.51;100.00;102284.69;5094932;28;20056;-53
2022/01/27 06:51:44;;;;;;;47.75;21.33;;;;;;;2.53;100.00;102280.34;5096434;28;20055;-53
2022/01/27 06:54:15;;;;;;;51.45;22.10;;;;;;;2.50;100.00;102291.66;5096033;28;20071;-53
2022/01/27 06:56:44;;;;;;;48.85;20.67;;;;;;;2.57;100.00;102285.56;5095479;28;20052;-53
2022/01/27 06:59:12;;;;;;;53.33;22.55;;;;;;;2.60;100.00;102287.31;5095573;28;20067;-54
2022/01/27 07:01:42;;;;;;;50.85;22.88;;;;;;;2.53;100.00;102275.94;5095105;28;20426;-53
2022/01/27 07:04:10;;;;;;;49.38;19.90;;;;;;;2.62;100.00;102284.69;5095484;28;20052;-53
2022/01/27 07:06:39;;;;;;;50.20;21.33;;;;;;;2.58;100.00;102281.19;5095146;28;20060;-53
2022/01/27 07:09:07;;;;;;;50.72;21.58;;;;;;;2.60;100.00;102288.16;5094933;28;20052;-53
2022/01/27 07:11:35;;;;;;;49.95;19.92;;;;;;;2.63;100.00;102284.69;5095215;28;20499;-53
2022/01/27 07:14:04;;;;;;;50.38;21.75;;;;;;;2.67;100.00;102285.56;5095696;28;20419;-53
2022/01/27 07:16:33;;;;;;;53.10;22.25;;;;;;;2.70;100.00;102290.78;5094585;28;20056;-54
2022/01/27 07:19:03;;;;;;;47.22;20.52;;;;;;;2.73;100.00;102288.19;5095246;28;20129;-53
2022/01/27 07:21:31;;;;;;;48.08;20.88;;;;;;;2.78;100.00;102287.28;5095024;28;20048;-54
2022/01/27 07:23:59;;;;;;;50.53;21.80;;;;;;;2.77;100.00;102282.94;5094587;28;20062;-53
2022/01/27 07:26:28;;;;;;;49.83;22.13;;;;;;;2.82;100.00;102287.28;5095846;28;20403;-53
2022/01/27 07:28:56;;;;;;;51.58;22.17;;;;;;;2.78;100.00;102283.81;5094771;28;20086;-54
2022/01/27 07:31:25;;;;;;;45.67;22.33;;;;;;;2.80;100.00;102295.16;5094681;28;20055;-54
2022/01/27 07:33:54;;;;;;;45.58;20.73;;;;;;;2.82;100.00;102297.78;5094507;28;20060;-54
2022/01/27 07:36:23;;;;;;;49.53;22.10;;;;;;;2.85;100.00;102300.41;5094530;28;20063;-54
2022/01/27 07:38:52;;;;;;;48.22;20.95;;;;;;;2.88;100.00;102301.25;5094481;28;20052;-54
2022/01/27 07:41:20;;;;;;;56.15;20.73;;;;;;;2.90;100.00;102299.50;5094707;28;20059;-54
2022/01/27 07:43:49;;;;;;;45.80;20.50;;;;;;;2.87;100.00;102294.25;5094581;28;20426;-54
2022/01/27 07:46:17;;;;;;;52.50;22.02;;;;;;;2.90;100.00;102302.13;5095009;28;20064;-54
2022/01/27 07:48:46;;;;;;;46.20;19.65;;;;;;;2.94;100.00;102310.84;5094736;28;20063;-54
2022/01/27 07:51:14;;;;;;;56.05;20.85;;;;;;;2.92;100.00;102302.97;5095474;28;20052;-53
2022/01/27 07:53:44;;;;;;;48.90;20.33;;;;;;;2.95;100.00;102305.59;5094178;28;20052;-54
2022/01/27 07:56:29;;;;;;;50.13;20.58;;;;;;;2.96;100.00;102304.75;5094065;28;20576;-54
2022/01/27 07:58:57;;;;;;;48.03;20.63;;;;;;;2.97;100.00;102309.09;5095343;28;20082;-54
2022/01/27 08:01:26;;;;;;;49.25;21.65;;;;;;;2.99;100.00;102316.97;5094829;28;20063;-54
2022/01/27 08:03:54;;;;;;;50.55;21.60;;;;;;;2.98;100.00;102318.72;5094512;28;20060;-54
2022/01/27 08:06:23;;;;;;;47.65;21.65;;;;;;;2.92;100.00;102318.72;5093795;28;20063;-54
2022/01/27 08:08:52;;;;;;;54.60;22.23;;;;;;;2.90;100.00;102312.59;5094124;28;20495;-54
2022/01/27 08:11:21;;;;;;;46.38;20.65;;;;;;;2.84;100.00;102307.41;5094361;28;20067;-54
2022/01/27 08:13:49;;;;;;;46.13;21.40;;;;;;;2.71;100.00;102309.16;5094231;28;20056;-54
2022/01/27 08:16:17;;;;;;;54.08;20.73;;;;;;;2.60;100.00;102317.00;5095262;28;20416;-54
2022/01/27 08:18:47;;;;;;;51.40;21.77;;;;;;;2.60;100.00;102322.22;5094040;28;20055;-54
2022/01/27 08:21:15;;;;;;;54.22;20.95;;;;;;;2.65;100.00;102329.22;5094315;28;20068;-54
2022/01/27 08:23:45;;;;;;;53.95;21.77;;;;;;;2.76;100.00;102323.13;5097309;28;20052;-53
2022/01/27 08:26:26;;;;;;;48.35;21.33;;;;;;;2.88;100.00;102332.72;5098942;28;20063;-54
2022/01/27 08:29:06;;;;;;;51.53;20.38;;;;;;;2.93;100.00;102322.22;5097822;28;20091;-54
2022/01/27 08:31:43;;;;;;;63.15;22.67;;;;;;;3.00;100.00;102323.09;5098575;28;20118;-54
2022/01/27 08:34:17;;;;;;;54.63;22.77;;;;;;;3.08;100.00;102329.19;5097957;28;20067;-54
2022/01/27 08:36:45;;;;;;;56.47;22.27;;;;;;;3.13;100.00;102332.69;5097922;28;20499;-54
2022/01/27 08:39:13;;;;;;;56.22;22.88;;;;;;;3.15;100.00;102328.31;5097804;28;20058;-54
2022/01/27 08:41:43;;;;;;;51.67;22.88;;;;;;;3.21;100.00;102332.66;5098888;28;20059;-54
2022/01/27 08:44:11;;;;;;;52.78;21.55;;;;;;;3.34;100.00;102332.59;5098031;28;20063;-54
2022/01/27 08:46:40;;;;;;;53.88;21.95;;;;;;;3.34;100.00;102332.59;5097594;28;20063;-54
2022/01/27 08:49:09;;;;;;;49.15;20.67;;;;;;;3.37;100.00;102336.13;5097912;28;20105;-54
2022/01/27 08:51:37;;;;;;;52.97;19.88;;;;;;;3.34;100.00;102331.75;5097604;28;20496;-54
2022/01/27 08:54:05;;;;;;;47.47;21.52;;;;;;;3.45;100.00;102326.47;5098068;28;20074;-54
2022/01/27 08:56:33;;;;;;;44.50;20.25;;;;;;;3.68;100.00;102336.88;5098117;28;20105;-54
2022/01/27 08:59:03;;;;;;;49.22;21.38;;;;;;;3.97;100.00;102333.22;5097440;28;20078;-54
2022/01/27 09:01:32;;;;;;;41.42;19.40;;;;;;;4.31;98.43;102319.91;5097818;28;20071;-54
2022/01/27 09:04:00;;;;;;;46.40;20.60;;;;;;;4.51;96.67;102335.53;5097497;28;20503;-54
2022/01/27 09:06:29;;;;;;;47.30;20.73;;;;;;;4.59;95.04;102333.69;5096991;28;20059;-54
2022/01/27 09:08:59;;;;;;;47.58;19.75;;;;;;;4.45;95.11;102326.81;5097700;28;20416;-54
2022/01/27 09:11:28;;;;;;;45.15;19.63;;;;;;;4.35;96.32;102313.72;5097167;28;20134;-54
2022/01/27 09:13:57;;;;;;;46.10;20.15;;;;;;;4.39;97.61;102332.09;5097175;28;20056;-54
2022/01/27 09:16:28;;;;;;;43.55;19.80;;;;;;;4.63;96.32;102315.25;5097719;28;20056;-54
2022/01/27 09:19:06;;;;;;;46.00;21.07;;;;;;;4.77;94.89;102312.50;5096846;28;20056;-54
2022/01/27 09:21:42;;;;;;;43.05;19.33;;;;;;;4.91;93.45;102316.75;5098146;28;20052;-54
2022/01/27 09:24:15;;;;;;;50.30;19.52;;;;;;;4.91;93.79;102308.88;5098167;28;20079;-54
2022/01/27 09:26:51;;;;;;;;;;;;;;;4.96;93.56;102307.06;5097915;28;20056;-54
2022/01/27 09:29:21;;;;;;;36.72;17.17;;;;;;;4.96;94.22;102307.06;5097759;28;19927;-54
2022/01/27 09:31:51;;;;;;;40.22;19.05;;;;;;;5.12;93.93;102298.13;5097439;28;20396;-54
2022/01/27 09:34:20;;;;;;;39.22;19.13;;;;;;;5.35;92.25;102294.38;5096069;28;20095;-54
2022/01/27 09:36:50;;;;;;;54.75;18.80;;;;;;;5.63;91.92;102299.28;5096772;28;20061;-54
2022/01/27 09:39:20;;;;;;;42.35;18.17;;;;;;;5.98;89.05;102301.47;5096733;28;20066;-54
2022/01/27 09:41:50;;;;;;;40.00;17.95;;;;;;;6.38;88.17;102305.28;5096682;28;20059;-54
2022/01/27 09:44:20;;;;;;;40.10;17.33;;;;;;;7.43;83.71;102301.59;5096617;28;20059;-54
2022/01/27 09:46:48;;;;;;;37.33;18.48;;;;;;;8.67;80.77;102305.00;5096475;28;20060;-54
2022/01/27 09:49:29;;;;;;;36.47;17.65;;;;;;;10.50;69.20;102314.72;5096854;28;20051;-54
2022/01/27 09:51:57;;;;;;;33.80;16.88;;;;;;;11.97;61.92;102305.00;5097643;28;20064;-55
2022/01/27 09:54:26;;;;;;;32.80;16.88;;;;;;;13.55;54.52;102308.97;5096438;28;20142;-56
2022/01/27 09:56:54;;;;;;;30.52;15.25;;;;;;;13.98;52.51;102305.22;5096329;28;20055;-55
2022/01/27 09:59:23;;;;;;;32.22;16.63;;;;;;;15.05;49.64;102307.00;5096299;28;20056;-55
2022/01/27 10:01:57;;;;;;;30.85;16.30;;;;;;;15.44;47.04;102300.47;5096757;28;20540;-55
2022/01/27 10:04:45;;;;;;;34.30;17.10;;;;;;;15.72;45.75;102302.50;5097396;28;20056;-56
2022/01/27 10:07:16;;;;;;;33.28;16.42;;;;;;;16.08;45.53;102316.59;5096147;28;20503;-56
2022/01/27 10:10:01;;;;;;;28.67;14.10;;;;;;;16.65;44.38;102311.47;5095889;28;20470;-56
2022/01/27 10:12:31;;;;;;;28.42;16.15;;;;;;;17.08;42.85;102311.63;5096585;28;20052;-56
2022/01/27 10:15:02;;;;;;;29.77;15.52;;;;;;;17.64;41.46;102310.84;5096104;28;20113;-56
2022/01/27 10:17:33;;;;;;;31.70;16.13;;;;;;;18.09;40.57;102311.56;5097045;28;20059;-56
2022/01/27 10:20:04;;;;;;;27.50;15.20;;;;;;;18.42;40.42;102312.97;5096510;28;20056;-56
2022/01/27 10:22:32;;;;;;;27.20;14.93;;;;;;;18.95;38.31;102304.94;5096984;28;20078;-56
2022/01/27 10:25:03;;;;;;;29.05;14.35;;;;;;;18.95;38.31;102304.94;5097001;28;20056;-56
2022/01/27 10:27:45;;;;;;;22.88;13.60;;;;;;;20.02;36.57;102298.81;5096246;28;20071;-56
2022/01/27 10:30:38;;;;;;;26.33;13.43;;;;;;;20.13;36.36;102297.44;5095432;28;20059;-56
2022/01/27 10:33:07;;;;;;;27.73;14.60;;;;;;;21.05;35.38;102301.22;5096313;28;20052;-56
2022/01/27 10:35:38;;;;;;;26.73;13.85;;;;;;;21.55;34.32;102298.19;5096211;28;20068;-57
2022/01/27 10:38:08;;;;;;;25.48;12.85;;;;;;;21.55;34.32;102298.19;5096475;28;20067;-57
2022/01/27 10:40:38;;;;;;;24.33;13.98;;;;;;;21.89;33.18;102307.13;5095609;28;20415;-56
2022/01/27 10:43:13;;;;;;;22.23;13.02;;;;;;;-145.00;33.18;96395.06;5095807;28;20520;-57
2022/01/27 10:46:04;;;;;;;24.98;13.38;;;;;;;23.45;30.33;102312.00;5094291;28;20060;-56
2022/01/27 10:48:34;;;;;;;22.27;12.60;;;;;;;23.52;29.85;102315.91;5095723;28;20082;-57
2022/01/27 10:51:09;;;;;;;22.10;12.40;;;;;;;23.69;29.84;102317.09;5095161;28;20056;-57
2022/01/27 10:53:51;;;;;;;23.80;13.55;;;;;;;23.85;29.20;102324.72;5095096;28;20063;-56
2022/01/27 10:56:22;;;;;;;25.17;14.15;;;;;;;23.57;30.12;102310.94;5096185;28;20056;-56
2022/01/27 10:58:50;;;;;;;23.02;13.02;;;;;;;23.36;30.11;102309.13;5095940;28;20052;-56
2022/01/27 11:01:27;;;;;;;25.35;13.80;;;;;;;23.71;29.35;102305.13;5095820;28;20073;-56
2022/01/27 11:03:58;;;;;;;24.98;13.65;;;;;;;23.03;31.20;102303.94;5096105;28;20063;-56
2022/01/27 11:06:28;;;;;;;27.73;12.95;;;;;;;23.03;31.20;102303.94;5094721;28;20060;-56
2022/01/27 11:08:58;;;;;;;21.58;12.38;;;;;;;23.03;31.20;102303.94;5094750;28;20051;-57
2022/01/27 11:11:27;;;;;;;23.67;12.10;;;;;;;26.57;26.69;102311.34;5094973;28;20052;-56
2022/01/27 11:13:58;;;;;;;21.95;11.48;;;;;;;26.49;26.48;102314.84;5095216;28;20495;-57
2022/01/27 11:16:34;;;;;;;19.17;9.23;;;;;;;25.88;27.45;102305.53;5094604;28;20062;-56
2022/01/27 11:19:19;;;;;;;13.88;7.15;;;;;;;27.02;24.93;102306.78;5095965;28;20395;-56
2022/01/27 11:21:55;;;;;;;15.95;7.55;;;;;;;26.25;26.65;102311.91;5095225;28;20056;-56
2022/01/27 11:24:29;;;;;;;12.80;6.65;;;;;;;27.30;25.30;102312.88;5094624;28;20063;-56
2022/01/27 11:27:00;;;;;;;12.63;7.30;;;;;;;27.74;24.56;102310.03;5094450;28;20060;-56
2022/01/27 11:29:29;;;;;;;;;;;;;;;27.65;24.53;102312.88;5096164;28;20071;-56
2022/01/27 11:32:13;;;;;;;17.80;7.93;;;;;;;27.08;24.98;102310.72;5094805;28;20359;-56
2022/01/27 11:34:46;;;;;;;17.08;7.80;;;;;;;27.37;24.91;102300.34;5094695;28;20419;-56
2022/01/27 11:37:18;;;;;;;13.73;7.18;;;;;;;28.00;24.39;102302.81;5095656;28;20058;-57
2022/01/27 11:39:54;;;;;;;12.90;7.63;;;;;;;29.18;23.05;102303.31;5095653;28;20372;-56
2022/01/27 11:42:45;;;;;;;18.58;8.70;;;;;;;28.22;23.80;102301.31;5094146;28;20060;-56
2022/01/27 11:45:27;;;;;;;16.02;9.20;;;;;;;27.21;24.61;102305.69;5095038;28;20062;-56
2022/01/27 11:47:58;;;;;;;18.63;9.50;;;;;;;27.20;25.37;102298.50;5094905;28;20055;-56
2022/01/27 11:50:35;;;;;;;17.30;8.13;;;;;;;28.91;23.66;102299.06;5094076;28;20058;-56